ADDS METAR Data INFO
IDs: Format: Raw Decoded Include TAF

Data at: 1014 UTC 14 Dec 2017

KHSD 140955Z AUTO 36005KT 10SM OVC055 06/M02 A3002 RMK A01
KHSD 140935Z AUTO 36006KT 10SM OVC055 06/M02 A3002 RMK A01
KHSD 140915Z AUTO 36007KT 10SM OVC055 05/M02 A3002 RMK A01
KHSD 140855Z AUTO 36003KT 10SM OVC055 04/M03 A3002 RMK A01
KHSD 140835Z AUTO 00000KT 10SM OVC055 03/M04 A3001 RMK A01
KHSD 140815Z AUTO 29003KT 10SM OVC055 03/M04 A3000 RMK A01
KHSD 140755Z AUTO 24005KT 10SM OVC055 02/M04 A2999 RMK A01
KHSD 140735Z AUTO 28003KT 10SM BKN055 02/M05 A2999 RMK A01
KHSD 140715Z AUTO 27004KT 10SM OVC055 02/M05 A2998 RMK A01
KHSD 140655Z AUTO 30004KT 10SM SCT055 OVC060 04/M05 A2998 RMK A01
KHSD 140635Z AUTO 25003KT 10SM BKN050 OVC060 04/M05 A2998 RMK A01
KHSD 140615Z AUTO 25003KT 10SM OVC050 04/M05 A2998 RMK A01
KHSD 140555Z AUTO 26003KT 10SM BKN050 04/M05 A2997 RMK A01
KHSD 140535Z AUTO 29003KT 10SM FEW050 06/M05 A2997 RMK A01
KHSD 140515Z AUTO 00000KT 10SM CLR 05/M05 A2997 RMK A01
KHSD 140455Z AUTO 00000KT 10SM CLR 06/M05 A2996 RMK A01
KHSD 140435Z AUTO 00000KT 10SM CLR 06/M05 A2996 RMK A01
KHSD 140415Z AUTO 26003KT 10SM CLR 06/M05 A2996 RMK A01
KHSD 140355Z AUTO 28004KT 10SM CLR 06/M05 A2996 RMK A01
KHSD 140335Z AUTO 26004KT 10SM CLR 08/M05 A2995 RMK A01
KHSD 140315Z AUTO 25005KT 10SM CLR 08/M05 A2994 RMK A01
KHSD 140255Z AUTO 24004KT 10SM CLR 08/M05 A2994 RMK A01
KHSD 140235Z AUTO 26005KT 10SM CLR 08/M05 A2993 RMK A01
KHSD 140215Z AUTO 25004KT 10SM CLR 08/M05 A2993 RMK A01
KHSD 140155Z AUTO 25005KT 10SM CLR 07/M05 A2992 RMK A01
KHSD 140135Z AUTO 25003KT 10SM CLR 08/M05 A2992 RMK A01
KHSD 140115Z AUTO 26005KT 10SM CLR 09/M05 A2991 RMK A01
KHSD 140055Z AUTO 24005KT 10SM CLR 09/M05 A2991 RMK A01
KHSD 140035Z AUTO 22005KT 10SM CLR 09/M05 A2991 RMK A01
KHSD 140015Z AUTO 25004KT 10SM CLR 11/M06 A2991 RMK A01
KHSD 132355Z AUTO 24003KT 10SM CLR 12/M06 A2990 RMK A01
KHSD 132335Z AUTO 00000KT 10SM CLR 13/M06 A2990 RMK A01
KHSD 132315Z AUTO 00000KT 10SM CLR 15/M07 A2990 RMK A01
KHSD 132255Z AUTO 34003KT 10SM CLR 15/M07 A2990 RMK A01
KHSD 132235Z AUTO 34003KT 10SM CLR 15/M07 A2990 RMK A01
KHSD 132215Z AUTO 35005KT 10SM CLR 16/M07 A2990 RMK A01
KHSD 132155Z AUTO 36011KT 10SM CLR 17/M07 A2990 RMK A01
KHSD 132135Z AUTO 36014G19KT 10SM CLR 18/M08 A2990 RMK A01
KHSD 132115Z AUTO 36013KT 10SM CLR 19/M06 A2989 RMK A01
KHSD 132055Z AUTO 01010KT 10SM CLR 19/M05 A2990 RMK A01
KHSD 132035Z AUTO 01008G13KT 10SM CLR 18/M05 A2990 RMK A01
KHSD 132015Z AUTO 35010KT 10SM CLR 18/M05 A2991 RMK A01
KHSD 131955Z AUTO 01008G16KT 10SM CLR 18/M05 A2992 RMK A01
KHSD 131935Z AUTO 36013KT 10SM CLR 18/M05 A2992 RMK A01
KHSD 131915Z AUTO 36013KT 10SM CLR 18/M05 A2993 RMK A01
KHSD 131855Z AUTO 36012KT 10SM CLR 18/M05 A2994 RMK A01
KHSD 131835Z AUTO 36010G16KT 10SM CLR 17/M05 A2994 RMK A01
KHSD 131815Z AUTO 36013KT 10SM CLR 16/M04 A2995 RMK A01
KHSD 131755Z AUTO 34013KT 10SM CLR 16/M04 A2996 RMK A01
KHSD 131735Z AUTO 36014KT 10SM CLR 15/M05 A2997 RMK A01
KHSD 131715Z AUTO 35016KT 10SM CLR 15/M06 A2997 RMK A01
KHSD 131655Z AUTO 35013KT 10SM CLR 15/M06 A2997 RMK A01
KHSD 131635Z AUTO 33010KT 10SM CLR 14/M06 A2997 RMK A01
KHSD 131615Z AUTO 32010KT 10SM CLR 13/M06 A2997 RMK A01
KHSD 131555Z AUTO 29008G14KT 10SM CLR 12/M07 A2996 RMK A01
KHSD 131535Z AUTO 27009KT 10SM CLR 11/M07 A2996 RMK A01
KHSD 131515Z AUTO 26010KT 10SM CLR 10/M07 A2995 RMK A01
KHSD 131455Z AUTO 24007KT 10SM CLR 08/M07 A2995 RMK A01
KHSD 131435Z AUTO 24007KT 10SM CLR 06/M07 A2994 RMK A01
KHSD 131415Z AUTO 23008KT 10SM CLR 05/M07 A2993 RMK A01
KHSD 131355Z AUTO 22009KT 10SM CLR 05/M07 A2992 RMK A01
KHSD 131335Z AUTO 21008KT 10SM CLR 04/M07 A2992 RMK A01
KHSD 131315Z AUTO 22005G10KT 10SM CLR 05/M07 A2992 RMK A01
KHSD 131255Z AUTO 21012KT 10SM CLR 05/M07 A2990 RMK A01
KHSD 131235Z AUTO 21011KT 10SM CLR 05/M07 A2990 RMK A01
KHSD 131215Z AUTO 21013KT 10SM CLR 05/M06 A2989 RMK A01
KHSD 131155Z AUTO 21013G18KT 10SM CLR 05/M06 A2990 RMK A01
KHSD 131135Z AUTO 21011KT 10SM CLR 05/M06 A2990 RMK A01
KHSD 131115Z AUTO 22010KT 10SM CLR 05/M06 A2991 RMK A01
KHSD 131055Z AUTO 22012G17KT 10SM CLR 06/M06 A2991 RMK A01
KHSD 131035Z AUTO 22014KT 10SM CLR 06/M06 A2992 RMK A01
KHSD 131015Z AUTO 21014KT 10SM CLR 06/M05 A2993 RMK A01
KHSD 130955Z AUTO 21013KT 10SM CLR 06/M05 A2993 RMK A01
KHSD 130935Z AUTO 21012G17KT 10SM CLR 06/M05 A2994 RMK A01
KHSD 130915Z AUTO 21013KT 10SM CLR 06/M05 A2995 RMK A01
KHSD 130855Z AUTO 21014KT 10SM CLR 07/M05 A2996 RMK A01
KHSD 130835Z AUTO 21015KT 10SM CLR 07/M04 A2996 RMK A01
KHSD 130815Z AUTO 21014G20KT 10SM CLR 07/M04 A2997 RMK A01
KHSD 130755Z AUTO 21014KT 10SM CLR 07/M04 A2997 RMK A01
KHSD 130735Z AUTO 21016KT 10SM CLR 07/M04 A2998 RMK A01
KHSD 130715Z AUTO 20016G21KT 10SM CLR 07/M04 A2999 RMK A01
KHSD 130655Z AUTO 20015G20KT 10SM CLR 07/M03 A3000 RMK A01
KHSD 130635Z AUTO 20016KT 10SM CLR 07/M03 A3001 RMK A01
KHSD 130615Z AUTO 20015G21KT 10SM CLR 07/M03 A3002 RMK A01
KHSD 130555Z AUTO 20015G20KT 10SM CLR 07/M03 A3004 RMK A01
KHSD 130535Z AUTO 20014KT 10SM CLR 07/M03 A3004 RMK A01
KHSD 130515Z AUTO 21014KT 10SM CLR 07/M03 A3005 RMK A01
KHSD 130455Z AUTO 20014KT 10SM CLR 07/M03 A3006 RMK A01
KHSD 130435Z AUTO 20014KT 10SM CLR 07/M03 A3007 RMK A01
KHSD 130415Z AUTO 21010KT 10SM CLR 06/M03 A3009 RMK A01
KHSD 130355Z AUTO 21012KT 10SM CLR 06/M03 A3010 RMK A01
KHSD 130335Z AUTO 21014KT 10SM CLR 07/M03 A3011 RMK A01
KHSD 130315Z AUTO 21012KT 10SM CLR 07/M03 A3012 RMK A01
KHSD 130255Z AUTO 21012G17KT 10SM CLR 07/M03 A3013 RMK A01
KHSD 130235Z AUTO 21010KT 10SM CLR 07/M03 A3014 RMK A01
KHSD 130215Z AUTO 21008KT 10SM CLR 06/M02 A3015 RMK A01
KHSD 130155Z AUTO 20007KT 10SM CLR 06/M02 A3016 RMK A01
KHSD 130135Z AUTO 20007KT 10SM CLR 06/M02 A3017 RMK A01
KHSD 130115Z AUTO 20007KT 10SM CLR 05/M03 A3018 RMK A01
KHSD 130055Z AUTO 19008KT 10SM CLR 05/M03 A3018 RMK A01
KHSD 130035Z AUTO 19007KT 10SM CLR 05/M03 A3019 RMK A01
KHSD 130015Z AUTO 19007KT 10SM CLR 06/M03 A3020 RMK A01
KHSD 122355Z AUTO 20007KT 10SM CLR 07/M02 A3020 RMK A01
KHSD 122335Z AUTO 20007KT 10SM CLR 07/M03 A3021 RMK A01
KHSD 122315Z AUTO 18005KT 10SM CLR 09/M03 A3022 RMK A01
KHSD 122255Z AUTO 18005KT 10SM CLR 09/M02 A3024 RMK A01
KHSD 122235Z AUTO 22004KT 10SM CLR 10/M03 A3024 RMK A01
KHSD 122215Z AUTO 00000KT 10SM CLR 10/M03 A3026 RMK A01